sensor_id;sensor_type;location;lat;lon;timestamp;P1;durP1;ratioP1;P2;durP2;ratioP2
54865;SDS011;40754;52.094;4.328;2023-03-31T00:00:35;28.13;;;5.38;;
54865;SDS011;40754;52.094;4.328;2023-03-31T00:03:00;23.58;;;4.80;;
54865;SDS011;40754;52.094;4.328;2023-03-31T00:05:26;30.08;;;5.93;;
54865;SDS011;40754;52.094;4.328;2023-03-31T00:07:56;24.95;;;5.57;;
54865;SDS011;40754;52.094;4.328;2023-03-31T00:10:28;17.70;;;4.68;;
54865;SDS011;40754;52.094;4.328;2023-03-31T00:12:57;22.70;;;4.57;;
54865;SDS011;40754;52.094;4.328;2023-03-31T00:15:23;28.08;;;5.10;;
54865;SDS011;40754;52.094;4.328;2023-03-31T00:17:51;25.30;;;4.70;;
54865;SDS011;40754;52.094;4.328;2023-03-31T00:20:17;17.42;;;4.53;;
54865;SDS011;40754;52.094;4.328;2023-03-31T00:22:46;21.10;;;4.57;;
54865;SDS011;40754;52.094;4.328;2023-03-31T00:25:12;20.58;;;4.50;;
54865;SDS011;40754;52.094;4.328;2023-03-31T00:27:42;21.92;;;5.03;;
54865;SDS011;40754;52.094;4.328;2023-03-31T00:30:09;18.13;;;4.95;;
54865;SDS011;40754;52.094;4.328;2023-03-31T00:32:39;19.55;;;4.38;;
54865;SDS011;40754;52.094;4.328;2023-03-31T00:35:05;25.23;;;4.78;;
54865;SDS011;40754;52.094;4.328;2023-03-31T00:37:34;20.05;;;4.85;;
54865;SDS011;40754;52.094;4.328;2023-03-31T00:40:00;19.10;;;4.38;;
54865;SDS011;40754;52.094;4.328;2023-03-31T00:42:26;23.38;;;4.53;;
54865;SDS011;40754;52.094;4.328;2023-03-31T00:47:43;17.60;;;3.92;;
54865;SDS011;40754;52.094;4.328;2023-03-31T00:50:17;23.00;;;4.60;;
54865;SDS011;40754;52.094;4.328;2023-03-31T00:52:46;13.10;;;3.58;;
54865;SDS011;40754;52.094;4.328;2023-03-31T00:55:13;15.43;;;3.58;;
54865;SDS011;40754;52.094;4.328;2023-03-31T00:57:41;15.82;;;4.05;;
54865;SDS011;40754;52.094;4.328;2023-03-31T01:00:09;17.13;;;4.30;;
54865;SDS011;40754;52.094;4.328;2023-03-31T01:02:43;16.90;;;4.28;;
54865;SDS011;40754;52.094;4.328;2023-03-31T01:05:21;20.23;;;4.22;;
54865;SDS011;40754;52.094;4.328;2023-03-31T01:07:49;14.15;;;4.72;;
54865;SDS011;40754;52.094;4.328;2023-03-31T01:10:15;16.30;;;4.68;;
54865;SDS011;40754;52.094;4.328;2023-03-31T01:12:43;15.55;;;4.20;;
54865;SDS011;40754;52.094;4.328;2023-03-31T01:15:14;14.93;;;4.43;;
54865;SDS011;40754;52.094;4.328;2023-03-31T01:17:43;14.65;;;3.70;;
54865;SDS011;40754;52.094;4.328;2023-03-31T01:31:50;13.02;;;3.45;;
54865;SDS011;40754;52.094;4.328;2023-03-31T02:17:19;19.80;;;4.60;;
54865;SDS011;40754;52.094;4.328;2023-03-31T02:19:54;17.60;;;3.38;;
54865;SDS011;40754;52.094;4.328;2023-03-31T02:22:53;14.52;;;3.60;;
54865;SDS011;40754;52.094;4.328;2023-03-31T02:25:43;19.30;;;4.40;;
54865;SDS011;40754;52.094;4.328;2023-03-31T03:02:03;19.98;;;4.20;;
54865;SDS011;40754;52.094;4.328;2023-03-31T03:08:33;16.85;;;4.75;;
54865;SDS011;40754;52.094;4.328;2023-03-31T03:17:40;14.73;;;4.03;;
54865;SDS011;40754;52.094;4.328;2023-03-31T03:26:38;6.80;;;1.92;;
54865;SDS011;40754;52.094;4.328;2023-03-31T03:32:31;9.25;;;2.30;;
54865;SDS011;40754;52.094;4.328;2023-03-31T03:35:03;6.60;;;2.00;;
54865;SDS011;40754;52.094;4.328;2023-03-31T03:37:30;8.02;;;2.25;;
54865;SDS011;40754;52.094;4.328;2023-03-31T03:39:56;8.60;;;1.90;;
54865;SDS011;40754;52.094;4.328;2023-03-31T03:42:55;6.82;;;1.80;;
54865;SDS011;40754;52.094;4.328;2023-03-31T03:45:20;8.05;;;1.80;;
54865;SDS011;40754;52.094;4.328;2023-03-31T03:51:33;8.63;;;1.90;;
54865;SDS011;40754;52.094;4.328;2023-03-31T04:00:35;10.25;;;2.63;;
54865;SDS011;40754;52.094;4.328;2023-03-31T04:03:19;10.82;;;3.55;;
54865;SDS011;40754;52.094;4.328;2023-03-31T04:05:45;11.88;;;3.92;;
54865;SDS011;40754;52.094;4.328;2023-03-31T04:08:21;8.35;;;3.67;;
54865;SDS011;40754;52.094;4.328;2023-03-31T04:10:49;14.15;;;3.88;;
54865;SDS011;40754;52.094;4.328;2023-03-31T04:13:15;13.82;;;5.05;;
54865;SDS011;40754;52.094;4.328;2023-03-31T04:15:44;14.57;;;4.97;;
54865;SDS011;40754;52.094;4.328;2023-03-31T04:18:11;13.40;;;4.68;;
54865;SDS011;40754;52.094;4.328;2023-03-31T04:29:45;20.20;;;7.38;;
54865;SDS011;40754;52.094;4.328;2023-03-31T04:46:44;16.10;;;4.30;;
54865;SDS011;40754;52.094;4.328;2023-03-31T04:49:33;20.90;;;4.68;;
54865;SDS011;40754;52.094;4.328;2023-03-31T04:52:08;16.45;;;4.32;;
54865;SDS011;40754;52.094;4.328;2023-03-31T04:55:05;15.13;;;4.85;;
54865;SDS011;40754;52.094;4.328;2023-03-31T04:58:24;13.15;;;3.67;;
54865;SDS011;40754;52.094;4.328;2023-03-31T05:01:13;14.43;;;3.78;;
54865;SDS011;40754;52.094;4.328;2023-03-31T05:04:09;10.55;;;3.33;;
54865;SDS011;40754;52.094;4.328;2023-03-31T05:06:35;8.75;;;3.25;;
54865;SDS011;40754;52.094;4.328;2023-03-31T05:09:30;11.23;;;3.22;;
54865;SDS011;40754;52.094;4.328;2023-03-31T05:12:05;12.80;;;3.33;;
54865;SDS011;40754;52.094;4.328;2023-03-31T05:14:56;7.70;;;2.50;;
54865;SDS011;40754;52.094;4.328;2023-03-31T05:21:20;8.07;;;2.42;;
54865;SDS011;40754;52.094;4.328;2023-03-31T05:24:01;8.73;;;2.72;;
54865;SDS011;40754;52.094;4.328;2023-03-31T05:33:26;6.32;;;2.80;;
54865;SDS011;40754;52.094;4.328;2023-03-31T05:35:55;8.73;;;2.50;;
54865;SDS011;40754;52.094;4.328;2023-03-31T05:38:58;8.73;;;2.95;;
54865;SDS011;40754;52.094;4.328;2023-03-31T05:42:00;8.50;;;3.00;;
54865;SDS011;40754;52.094;4.328;2023-03-31T05:45:18;6.07;;;2.60;;
54865;SDS011;40754;52.094;4.328;2023-03-31T05:48:08;8.40;;;2.65;;
54865;SDS011;40754;52.094;4.328;2023-03-31T05:51:19;6.00;;;2.20;;
54865;SDS011;40754;52.094;4.328;2023-03-31T05:53:57;4.80;;;1.90;;
54865;SDS011;40754;52.094;4.328;2023-03-31T05:56:25;7.60;;;2.30;;
54865;SDS011;40754;52.094;4.328;2023-03-31T05:59:07;4.47;;;1.80;;
54865;SDS011;40754;52.094;4.328;2023-03-31T06:11:53;3.35;;;1.48;;
54865;SDS011;40754;52.094;4.328;2023-03-31T06:15:04;4.72;;;1.60;;
54865;SDS011;40754;52.094;4.328;2023-03-31T06:21:26;4.32;;;1.63;;
54865;SDS011;40754;52.094;4.328;2023-03-31T06:23:53;5.15;;;1.70;;
54865;SDS011;40754;52.094;4.328;2023-03-31T06:26:33;9.90;;;2.00;;
54865;SDS011;40754;52.094;4.328;2023-03-31T06:32:25;9.60;;;1.98;;
54865;SDS011;40754;52.094;4.328;2023-03-31T06:38:38;4.78;;;1.90;;
54865;SDS011;40754;52.094;4.328;2023-03-31T06:48:52;10.63;;;2.58;;
54865;SDS011;40754;52.094;4.328;2023-03-31T06:51:19;8.80;;;2.65;;
54865;SDS011;40754;52.094;4.328;2023-03-31T06:53:48;11.15;;;2.75;;
54865;SDS011;40754;52.094;4.328;2023-03-31T07:02:45;7.85;;;2.97;;
54865;SDS011;40754;52.094;4.328;2023-03-31T07:15:21;12.55;;;3.10;;
54865;SDS011;40754;52.094;4.328;2023-03-31T07:17:50;10.38;;;3.75;;
54865;SDS011;40754;52.094;4.328;2023-03-31T07:23:25;15.40;;;3.40;;
54865;SDS011;40754;52.094;4.328;2023-03-31T07:25:53;15.65;;;3.10;;
54865;SDS011;40754;52.094;4.328;2023-03-31T07:28:48;13.52;;;3.53;;
54865;SDS011;40754;52.094;4.328;2023-03-31T07:31:37;14.20;;;3.78;;
54865;SDS011;40754;52.094;4.328;2023-03-31T07:34:14;14.20;;;3.30;;
54865;SDS011;40754;52.094;4.328;2023-03-31T07:36:43;11.82;;;3.05;;
54865;SDS011;40754;52.094;4.328;2023-03-31T07:39:29;14.05;;;3.58;;
54865;SDS011;40754;52.094;4.328;2023-03-31T07:42:04;19.73;;;3.97;;
54865;SDS011;40754;52.094;4.328;2023-03-31T07:44:48;13.80;;;3.72;;
54865;SDS011;40754;52.094;4.328;2023-03-31T07:47:44;12.13;;;4.00;;
54865;SDS011;40754;52.094;4.328;2023-03-31T07:50:15;15.98;;;3.72;;
54865;SDS011;40754;52.094;4.328;2023-03-31T07:52:50;11.13;;;3.67;;
54865;SDS011;40754;52.094;4.328;2023-03-31T07:55:19;19.45;;;4.18;;
54865;SDS011;40754;52.094;4.328;2023-03-31T07:57:46;18.35;;;3.40;;
54865;SDS011;40754;52.094;4.328;2023-03-31T08:00:15;15.63;;;4.18;;
54865;SDS011;40754;52.094;4.328;2023-03-31T08:02:41;15.23;;;3.72;;
54865;SDS011;40754;52.094;4.328;2023-03-31T08:05:07;10.27;;;3.47;;
54865;SDS011;40754;52.094;4.328;2023-03-31T08:07:36;13.82;;;3.35;;
54865;SDS011;40754;52.094;4.328;2023-03-31T08:10:06;12.25;;;3.38;;
54865;SDS011;40754;52.094;4.328;2023-03-31T08:12:35;17.45;;;3.65;;
54865;SDS011;40754;52.094;4.328;2023-03-31T08:15:06;21.70;;;3.88;;
54865;SDS011;40754;52.094;4.328;2023-03-31T08:18:00;14.68;;;3.72;;
54865;SDS011;40754;52.094;4.328;2023-03-31T08:20:44;12.00;;;3.80;;
54865;SDS011;40754;52.094;4.328;2023-03-31T08:23:10;16.48;;;3.55;;
54865;SDS011;40754;52.094;4.328;2023-03-31T08:25:36;19.50;;;4.05;;
54865;SDS011;40754;52.094;4.328;2023-03-31T08:28:02;15.60;;;3.65;;
54865;SDS011;40754;52.094;4.328;2023-03-31T09:10:37;18.27;;;4.25;;
54865;SDS011;40754;52.094;4.328;2023-03-31T09:18:33;20.57;;;4.13;;
54865;SDS011;40754;52.094;4.328;2023-03-31T09:21:13;22.60;;;4.18;;
54865;SDS011;40754;52.094;4.328;2023-03-31T09:23:46;19.27;;;4.43;;
54865;SDS011;40754;52.094;4.328;2023-03-31T09:27:02;23.40;;;4.35;;
54865;SDS011;40754;52.094;4.328;2023-03-31T09:29:27;28.33;;;4.57;;
54865;SDS011;40754;52.094;4.328;2023-03-31T09:52:29;20.17;;;4.95;;
54865;SDS011;40754;52.094;4.328;2023-03-31T09:55:05;23.17;;;4.65;;
54865;SDS011;40754;52.094;4.328;2023-03-31T10:31:54;12.90;;;2.92;;
54865;SDS011;40754;52.094;4.328;2023-03-31T10:45:30;13.00;;;3.40;;
54865;SDS011;40754;52.094;4.328;2023-03-31T11:59:21;10.15;;;1.85;;
54865;SDS011;40754;52.094;4.328;2023-03-31T12:12:26;12.07;;;2.40;;
54865;SDS011;40754;52.094;4.328;2023-03-31T12:15:56;10.00;;;2.90;;
54865;SDS011;40754;52.094;4.328;2023-03-31T12:28:30;9.30;;;2.50;;
54865;SDS011;40754;52.094;4.328;2023-03-31T14:18:54;11.98;;;3.45;;
54865;SDS011;40754;52.094;4.328;2023-03-31T17:25:51;38.53;;;7.00;;
54865;SDS011;40754;52.094;4.328;2023-03-31T17:28:19;38.77;;;7.90;;
54865;SDS011;40754;52.094;4.328;2023-03-31T17:30:57;41.50;;;7.22;;
54865;SDS011;40754;52.094;4.328;2023-03-31T17:33:23;33.78;;;7.78;;
54865;SDS011;40754;52.094;4.328;2023-03-31T17:35:49;38.28;;;7.93;;
54865;SDS011;40754;52.094;4.328;2023-03-31T17:38:15;29.77;;;6.05;;
54865;SDS011;40754;52.094;4.328;2023-03-31T17:40:43;33.78;;;6.53;;
54865;SDS011;40754;52.094;4.328;2023-03-31T17:43:09;32.60;;;6.47;;
54865;SDS011;40754;52.094;4.328;2023-03-31T17:45:36;35.78;;;5.47;;
54865;SDS011;40754;52.094;4.328;2023-03-31T17:48:02;34.20;;;6.07;;
54865;SDS011;40754;52.094;4.328;2023-03-31T17:50:29;34.45;;;6.85;;
54865;SDS011;40754;52.094;4.328;2023-03-31T17:52:58;38.25;;;6.65;;
54865;SDS011;40754;52.094;4.328;2023-03-31T17:55:25;31.42;;;6.80;;
54865;SDS011;40754;52.094;4.328;2023-03-31T17:57:51;33.85;;;6.50;;
54865;SDS011;40754;52.094;4.328;2023-03-31T18:00:17;39.78;;;7.65;;
54865;SDS011;40754;52.094;4.328;2023-03-31T18:02:43;43.35;;;7.72;;
54865;SDS011;40754;52.094;4.328;2023-03-31T18:05:21;41.33;;;7.10;;
54865;SDS011;40754;52.094;4.328;2023-03-31T18:07:46;40.72;;;7.90;;
54865;SDS011;40754;52.094;4.328;2023-03-31T18:10:12;33.55;;;6.97;;
54865;SDS011;40754;52.094;4.328;2023-03-31T18:12:38;49.40;;;8.90;;
54865;SDS011;40754;52.094;4.328;2023-03-31T18:15:07;49.65;;;8.52;;
54865;SDS011;40754;52.094;4.328;2023-03-31T18:17:34;35.33;;;6.63;;
54865;SDS011;40754;52.094;4.328;2023-03-31T18:25:47;43.40;;;8.32;;
54865;SDS011;40754;52.094;4.328;2023-03-31T18:28:44;47.13;;;7.75;;
54865;SDS011;40754;52.094;4.328;2023-03-31T18:31:19;51.15;;;8.20;;
54865;SDS011;40754;52.094;4.328;2023-03-31T18:33:51;50.38;;;8.50;;
54865;SDS011;40754;52.094;4.328;2023-03-31T18:40:11;31.17;;;6.35;;
54865;SDS011;40754;52.094;4.328;2023-03-31T18:46:01;40.33;;;7.20;;
54865;SDS011;40754;52.094;4.328;2023-03-31T19:35:43;47.88;;;7.53;;
54865;SDS011;40754;52.094;4.328;2023-03-31T19:38:17;49.65;;;8.15;;
54865;SDS011;40754;52.094;4.328;2023-03-31T19:47:50;55.58;;;8.35;;
54865;SDS011;40754;52.094;4.328;2023-03-31T19:54:01;44.65;;;7.40;;
54865;SDS011;40754;52.094;4.328;2023-03-31T19:56:43;51.17;;;7.25;;
54865;SDS011;40754;52.094;4.328;2023-03-31T20:02:59;55.63;;;7.70;;
54865;SDS011;40754;52.094;4.328;2023-03-31T20:16:09;49.17;;;6.95;;
54865;SDS011;40754;52.094;4.328;2023-03-31T20:24:23;35.45;;;6.20;;
54865;SDS011;40754;52.094;4.328;2023-03-31T20:27:25;49.53;;;7.40;;
54865;SDS011;40754;52.094;4.328;2023-03-31T20:29:53;49.35;;;7.20;;
54865;SDS011;40754;52.094;4.328;2023-03-31T20:32:50;47.70;;;7.63;;
54865;SDS011;40754;52.094;4.328;2023-03-31T20:35:41;58.33;;;8.32;;
54865;SDS011;40754;52.094;4.328;2023-03-31T21:09:58;54.10;;;8.40;;
54865;SDS011;40754;52.094;4.328;2023-03-31T21:15:30;59.75;;;7.25;;
54865;SDS011;40754;52.094;4.328;2023-03-31T21:24:22;46.60;;;6.68;;
54865;SDS011;40754;52.094;4.328;2023-03-31T21:30:26;35.05;;;7.05;;
54865;SDS011;40754;52.094;4.328;2023-03-31T21:39:20;72.75;;;9.45;;
54865;SDS011;40754;52.094;4.328;2023-03-31T21:42:03;91.50;;;11.40;;
54865;SDS011;40754;52.094;4.328;2023-03-31T21:45:10;90.85;;;11.27;;
54865;SDS011;40754;52.094;4.328;2023-03-31T21:54:29;94.82;;;13.48;;
54865;SDS011;40754;52.094;4.328;2023-03-31T21:57:36;89.30;;;13.45;;
54865;SDS011;40754;52.094;4.328;2023-03-31T22:03:54;133.75;;;13.85;;
54865;SDS011;40754;52.094;4.328;2023-03-31T22:06:30;103.63;;;14.70;;
54865;SDS011;40754;52.094;4.328;2023-03-31T22:09:03;106.97;;;15.18;;
54865;SDS011;40754;52.094;4.328;2023-03-31T22:14:02;120.00;;;15.38;;
54865;SDS011;40754;52.094;4.328;2023-03-31T22:16:28;143.13;;;15.90;;
54865;SDS011;40754;52.094;4.328;2023-03-31T22:19:03;136.82;;;16.55;;
54865;SDS011;40754;52.094;4.328;2023-03-31T22:21:38;116.90;;;16.38;;
54865;SDS011;40754;52.094;4.328;2023-03-31T22:24:23;156.35;;;17.83;;
54865;SDS011;40754;52.094;4.328;2023-03-31T22:26:54;154.68;;;17.90;;
54865;SDS011;40754;52.094;4.328;2023-03-31T22:29:20;118.00;;;15.65;;
54865;SDS011;40754;52.094;4.328;2023-03-31T22:31:48;146.20;;;17.77;;
54865;SDS011;40754;52.094;4.328;2023-03-31T22:34:17;180.60;;;18.63;;
54865;SDS011;40754;52.094;4.328;2023-03-31T22:36:49;153.82;;;18.42;;
54865;SDS011;40754;52.094;4.328;2023-03-31T22:39:18;160.70;;;17.42;;
54865;SDS011;40754;52.094;4.328;2023-03-31T22:41:59;144.57;;;16.83;;
54865;SDS011;40754;52.094;4.328;2023-03-31T22:44:27;132.07;;;17.20;;
54865;SDS011;40754;52.094;4.328;2023-03-31T22:47:05;187.82;;;16.98;;
54865;SDS011;40754;52.094;4.328;2023-03-31T22:49:34;155.05;;;17.30;;
54865;SDS011;40754;52.094;4.328;2023-03-31T22:52:08;167.38;;;18.98;;
54865;SDS011;40754;52.094;4.328;2023-03-31T22:54:46;191.52;;;17.20;;
54865;SDS011;40754;52.094;4.328;2023-03-31T22:57:11;154.55;;;19.38;;
54865;SDS011;40754;52.094;4.328;2023-03-31T23:00:01;139.95;;;16.95;;
54865;SDS011;40754;52.094;4.328;2023-03-31T23:02:44;175.05;;;16.67;;
54865;SDS011;40754;52.094;4.328;2023-03-31T23:05:13;162.32;;;18.27;;
54865;SDS011;40754;52.094;4.328;2023-03-31T23:07:48;165.88;;;17.00;;
54865;SDS011;40754;52.094;4.328;2023-03-31T23:10:35;150.82;;;16.65;;
54865;SDS011;40754;52.094;4.328;2023-03-31T23:13:06;140.30;;;18.17;;
54865;SDS011;40754;52.094;4.328;2023-03-31T23:15:53;148.77;;;17.38;;
54865;SDS011;40754;52.094;4.328;2023-03-31T23:18:24;130.63;;;19.02;;
54865;SDS011;40754;52.094;4.328;2023-03-31T23:20:51;152.32;;;17.33;;
54865;SDS011;40754;52.094;4.328;2023-03-31T23:23:16;164.23;;;19.13;;
54865;SDS011;40754;52.094;4.328;2023-03-31T23:25:44;159.82;;;18.42;;
54865;SDS011;40754;52.094;4.328;2023-03-31T23:28:15;158.23;;;17.83;;
54865;SDS011;40754;52.094;4.328;2023-03-31T23:30:50;141.45;;;18.27;;
54865;SDS011;40754;52.094;4.328;2023-03-31T23:33:26;170.88;;;19.63;;
54865;SDS011;40754;52.094;4.328;2023-03-31T23:35:54;174.43;;;18.13;;
54865;SDS011;40754;52.094;4.328;2023-03-31T23:38:23;186.65;;;18.65;;
54865;SDS011;40754;52.094;4.328;2023-03-31T23:40:51;170.55;;;17.77;;
54865;SDS011;40754;52.094;4.328;2023-03-31T23:43:30;185.68;;;18.92;;
54865;SDS011;40754;52.094;4.328;2023-03-31T23:46:02;159.85;;;17.05;;
54865;SDS011;40754;52.094;4.328;2023-03-31T23:48:40;183.38;;;18.08;;
54865;SDS011;40754;52.094;4.328;2023-03-31T23:51:23;146.77;;;16.23;;
54865;SDS011;40754;52.094;4.328;2023-03-31T23:53:48;126.28;;;13.52;;
54865;SDS011;40754;52.094;4.328;2023-03-31T23:56:14;97.75;;;13.07;;
54865;SDS011;40754;52.094;4.328;2023-03-31T23:58:43;107.97;;;12.05;;
